Jenkins, Minnesota
Current Conditions -  °F | °C
As of 9:13 AM on Wednesday 26 Nov 2014 (Local Time) from KPWC Reporting Station
Light Snow Light Snow  
Wind Chill:   Ceiling: 1400
Heat Index: 16°   Visibility: 5mi
Dew Point: 10°   Wind: 12mph
Humidity: 79%   Direction: 360°N
Pressure: 30.23"   Gusts: 16mph
Location:  46.65°N, 94.33°W
Report Text: KPWC 261513Z AUTO 36010G14KT 5SM -SN OVC014 M09/M12 A3023 RMK AO2
Loading
Personal Weather Stations






























Interactive Weather Map New forecast layout! Learn more

10-Day Weather Forecast

Advertisements
Track Severe Weather on mobile